Terminal Aerodrome Forecast
Issued by NWS

Home | Current Version | Previous Version | Text Only | Print | Product List | Glossary On
Versions: 1 2 3 4 5 6 7 8 9 10 11 12 13 14 15 16 17 18 19 20 21 22 23 24 25 26
000
FTAK31 PAFA 131731
TAFASC
TAF
PASC 131731Z 1318/1418 07023KT 3/4SM BLSN BR OVC005
     FM132100 06020G30KT 1/2SM SN BLSN OVC003
     FM132300 06020G30KT 1/4SM SN BLSN OVC003
     FM140400 07033G40KT 1/4SM BLSN OVC003=

USA.gov is the U.S. government's official web portal to all federal, state and local government web resources and services.